sensor_id;sensor_type;location;lat;lon;timestamp;P1;durP1;ratioP1;P2;durP2;ratioP2
1721;SDS011;858;53.190;8.596;2023-05-07T00:01:26;27.25;;;20.75;;
1721;SDS011;858;53.190;8.596;2023-05-07T00:03:52;26.08;;;21.63;;
1721;SDS011;858;53.190;8.596;2023-05-07T00:06:19;27.23;;;20.90;;
1721;SDS011;858;53.190;8.596;2023-05-07T00:08:45;26.58;;;20.92;;
1721;SDS011;858;53.190;8.596;2023-05-07T00:11:11;27.30;;;21.60;;
1721;SDS011;858;53.190;8.596;2023-05-07T00:13:38;25.45;;;20.27;;
1721;SDS011;858;53.190;8.596;2023-05-07T00:16:06;26.08;;;20.55;;
1721;SDS011;858;53.190;8.596;2023-05-07T00:18:32;28.43;;;20.93;;
1721;SDS011;858;53.190;8.596;2023-05-07T00:20:58;28.20;;;22.15;;
1721;SDS011;858;53.190;8.596;2023-05-07T00:23:26;24.90;;;20.70;;
1721;SDS011;858;53.190;8.596;2023-05-07T00:25:53;27.70;;;21.50;;
1721;SDS011;858;53.190;8.596;2023-05-07T00:28:22;27.48;;;21.98;;
1721;SDS011;858;53.190;8.596;2023-05-07T00:30:48;27.52;;;20.75;;
1721;SDS011;858;53.190;8.596;2023-05-07T00:33:16;26.13;;;20.73;;
1721;SDS011;858;53.190;8.596;2023-05-07T00:35:43;26.88;;;21.77;;
1721;SDS011;858;53.190;8.596;2023-05-07T00:38:09;28.60;;;22.20;;
1721;SDS011;858;53.190;8.596;2023-05-07T00:40:35;26.00;;;22.05;;
1721;SDS011;858;53.190;8.596;2023-05-07T00:43:02;28.87;;;23.00;;
1721;SDS011;858;53.190;8.596;2023-05-07T00:45:28;28.77;;;23.25;;
1721;SDS011;858;53.190;8.596;2023-05-07T00:47:57;26.85;;;21.23;;
1721;SDS011;858;53.190;8.596;2023-05-07T00:50:25;25.10;;;21.70;;
1721;SDS011;858;53.190;8.596;2023-05-07T00:52:52;27.20;;;21.50;;
1721;SDS011;858;53.190;8.596;2023-05-07T00:55:19;28.77;;;21.27;;
1721;SDS011;858;53.190;8.596;2023-05-07T00:57:45;28.52;;;22.10;;
1721;SDS011;858;53.190;8.596;2023-05-07T01:00:12;28.03;;;21.27;;
1721;SDS011;858;53.190;8.596;2023-05-07T01:02:39;26.90;;;21.37;;
1721;SDS011;858;53.190;8.596;2023-05-07T01:05:06;27.73;;;21.92;;
1721;SDS011;858;53.190;8.596;2023-05-07T01:07:35;26.38;;;21.13;;
1721;SDS011;858;53.190;8.596;2023-05-07T01:10:03;28.30;;;22.35;;
1721;SDS011;858;53.190;8.596;2023-05-07T01:12:30;29.55;;;22.55;;
1721;SDS011;858;53.190;8.596;2023-05-07T01:14:56;27.88;;;22.00;;
1721;SDS011;858;53.190;8.596;2023-05-07T01:17:23;30.20;;;22.95;;
1721;SDS011;858;53.190;8.596;2023-05-07T01:19:49;28.15;;;21.35;;
1721;SDS011;858;53.190;8.596;2023-05-07T01:24:50;28.27;;;21.83;;
1721;SDS011;858;53.190;8.596;2023-05-07T01:27:17;29.38;;;22.00;;
1721;SDS011;858;53.190;8.596;2023-05-07T01:29:43;25.97;;;22.03;;
1721;SDS011;858;53.190;8.596;2023-05-07T01:32:09;27.38;;;21.58;;
1721;SDS011;858;53.190;8.596;2023-05-07T01:34:38;26.88;;;21.88;;
1721;SDS011;858;53.190;8.596;2023-05-07T01:37:05;28.27;;;22.50;;
1721;SDS011;858;53.190;8.596;2023-05-07T01:39:31;28.02;;;22.60;;
1721;SDS011;858;53.190;8.596;2023-05-07T01:41:59;27.80;;;22.13;;
1721;SDS011;858;53.190;8.596;2023-05-07T01:44:26;28.73;;;21.42;;
1721;SDS011;858;53.190;8.596;2023-05-07T01:46:53;27.95;;;22.35;;
1721;SDS011;858;53.190;8.596;2023-05-07T01:49:20;28.20;;;23.58;;
1721;SDS011;858;53.190;8.596;2023-05-07T01:51:48;27.77;;;22.17;;
1721;SDS011;858;53.190;8.596;2023-05-07T01:54:15;26.65;;;22.77;;
1721;SDS011;858;53.190;8.596;2023-05-07T01:56:41;27.02;;;21.67;;
1721;SDS011;858;53.190;8.596;2023-05-07T01:59:09;28.02;;;21.83;;
1721;SDS011;858;53.190;8.596;2023-05-07T02:01:35;27.63;;;21.40;;
1721;SDS011;858;53.190;8.596;2023-05-07T02:04:02;25.55;;;21.48;;
1721;SDS011;858;53.190;8.596;2023-05-07T02:06:29;25.50;;;20.63;;
1721;SDS011;858;53.190;8.596;2023-05-07T02:08:56;24.95;;;20.77;;
1721;SDS011;858;53.190;8.596;2023-05-07T02:11:22;25.55;;;20.15;;
1721;SDS011;858;53.190;8.596;2023-05-07T02:13:50;26.70;;;20.33;;
1721;SDS011;858;53.190;8.596;2023-05-07T02:16:19;27.15;;;21.38;;
1721;SDS011;858;53.190;8.596;2023-05-07T02:18:46;26.02;;;20.58;;
1721;SDS011;858;53.190;8.596;2023-05-07T02:21:13;26.48;;;20.83;;
1721;SDS011;858;53.190;8.596;2023-05-07T02:23:39;26.55;;;20.75;;
1721;SDS011;858;53.190;8.596;2023-05-07T02:26:06;28.87;;;20.93;;
1721;SDS011;858;53.190;8.596;2023-05-07T02:28:32;28.52;;;21.00;;
1721;SDS011;858;53.190;8.596;2023-05-07T02:31:00;25.08;;;19.83;;
1721;SDS011;858;53.190;8.596;2023-05-07T02:33:28;27.25;;;20.42;;
1721;SDS011;858;53.190;8.596;2023-05-07T02:35:54;25.45;;;20.00;;
1721;SDS011;858;53.190;8.596;2023-05-07T02:38:21;27.52;;;19.80;;
1721;SDS011;858;53.190;8.596;2023-05-07T02:40:49;23.00;;;18.25;;
1721;SDS011;858;53.190;8.596;2023-05-07T02:43:16;26.00;;;19.07;;
1721;SDS011;858;53.190;8.596;2023-05-07T02:45:42;27.55;;;19.27;;
1721;SDS011;858;53.190;8.596;2023-05-07T02:48:09;25.10;;;20.00;;
1721;SDS011;858;53.190;8.596;2023-05-07T02:50:37;25.60;;;19.57;;
1721;SDS011;858;53.190;8.596;2023-05-07T02:53:03;27.73;;;19.40;;
1721;SDS011;858;53.190;8.596;2023-05-07T02:55:29;27.98;;;20.67;;
1721;SDS011;858;53.190;8.596;2023-05-07T02:57:56;22.63;;;18.23;;
1721;SDS011;858;53.190;8.596;2023-05-07T03:00:22;22.83;;;17.73;;
1721;SDS011;858;53.190;8.596;2023-05-07T03:02:49;26.05;;;19.38;;
1721;SDS011;858;53.190;8.596;2023-05-07T03:05:15;25.67;;;20.10;;
1721;SDS011;858;53.190;8.596;2023-05-07T03:07:45;24.98;;;19.35;;
1721;SDS011;858;53.190;8.596;2023-05-07T03:10:12;26.10;;;19.73;;
1721;SDS011;858;53.190;8.596;2023-05-07T03:12:39;29.52;;;20.73;;
1721;SDS011;858;53.190;8.596;2023-05-07T03:15:06;26.20;;;19.67;;
1721;SDS011;858;53.190;8.596;2023-05-07T03:17:33;28.65;;;20.40;;
1721;SDS011;858;53.190;8.596;2023-05-07T03:19:59;23.80;;;19.20;;
1721;SDS011;858;53.190;8.596;2023-05-07T03:22:25;27.17;;;20.55;;
1721;SDS011;858;53.190;8.596;2023-05-07T03:24:53;25.67;;;19.45;;
1721;SDS011;858;53.190;8.596;2023-05-07T03:27:19;25.80;;;20.23;;
1721;SDS011;858;53.190;8.596;2023-05-07T03:29:46;27.52;;;20.58;;
1721;SDS011;858;53.190;8.596;2023-05-07T03:32:12;25.90;;;19.60;;
1721;SDS011;858;53.190;8.596;2023-05-07T03:34:39;26.52;;;19.73;;
1721;SDS011;858;53.190;8.596;2023-05-07T03:37:05;26.35;;;20.17;;
1721;SDS011;858;53.190;8.596;2023-05-07T03:39:32;28.33;;;20.25;;
1721;SDS011;858;53.190;8.596;2023-05-07T03:41:59;26.40;;;20.05;;
1721;SDS011;858;53.190;8.596;2023-05-07T03:44:26;26.48;;;20.80;;
1721;SDS011;858;53.190;8.596;2023-05-07T03:46:52;28.05;;;20.50;;
1721;SDS011;858;53.190;8.596;2023-05-07T03:49:20;28.63;;;21.05;;
1721;SDS011;858;53.190;8.596;2023-05-07T03:51:46;29.13;;;21.38;;
1721;SDS011;858;53.190;8.596;2023-05-07T03:54:13;28.33;;;21.40;;
1721;SDS011;858;53.190;8.596;2023-05-07T03:56:40;27.38;;;19.77;;
1721;SDS011;858;53.190;8.596;2023-05-07T03:59:08;25.10;;;19.25;;
1721;SDS011;858;53.190;8.596;2023-05-07T04:01:35;27.80;;;20.02;;
1721;SDS011;858;53.190;8.596;2023-05-07T04:04:01;24.15;;;18.73;;
1721;SDS011;858;53.190;8.596;2023-05-07T04:06:28;25.52;;;19.40;;
1721;SDS011;858;53.190;8.596;2023-05-07T04:08:54;25.70;;;19.08;;
1721;SDS011;858;53.190;8.596;2023-05-07T04:11:21;27.73;;;19.70;;
1721;SDS011;858;53.190;8.596;2023-05-07T04:13:48;29.38;;;20.63;;
1721;SDS011;858;53.190;8.596;2023-05-07T04:16:16;29.83;;;20.88;;
1721;SDS011;858;53.190;8.596;2023-05-07T04:18:42;27.77;;;19.33;;
1721;SDS011;858;53.190;8.596;2023-05-07T04:21:13;27.77;;;19.83;;
1721;SDS011;858;53.190;8.596;2023-05-07T04:23:39;25.30;;;19.92;;
1721;SDS011;858;53.190;8.596;2023-05-07T04:26:06;26.67;;;19.70;;
1721;SDS011;858;53.190;8.596;2023-05-07T04:28:33;24.90;;;18.98;;
1721;SDS011;858;53.190;8.596;2023-05-07T04:31:00;27.48;;;19.20;;
1721;SDS011;858;53.190;8.596;2023-05-07T04:33:28;28.17;;;19.37;;
1721;SDS011;858;53.190;8.596;2023-05-07T04:35:54;23.13;;;18.90;;
1721;SDS011;858;53.190;8.596;2023-05-07T04:38:20;24.75;;;18.52;;
1721;SDS011;858;53.190;8.596;2023-05-07T04:40:48;24.27;;;18.98;;
1721;SDS011;858;53.190;8.596;2023-05-07T04:43:15;23.17;;;18.20;;
1721;SDS011;858;53.190;8.596;2023-05-07T04:45:41;25.05;;;18.75;;
1721;SDS011;858;53.190;8.596;2023-05-07T04:48:08;26.13;;;19.40;;
1721;SDS011;858;53.190;8.596;2023-05-07T04:50:36;24.63;;;18.50;;
1721;SDS011;858;53.190;8.596;2023-05-07T04:53:03;24.37;;;18.53;;
1721;SDS011;858;53.190;8.596;2023-05-07T04:55:30;24.58;;;18.67;;
1721;SDS011;858;53.190;8.596;2023-05-07T04:57:56;22.80;;;18.25;;
1721;SDS011;858;53.190;8.596;2023-05-07T05:00:23;21.92;;;17.63;;
1721;SDS011;858;53.190;8.596;2023-05-07T05:02:50;22.33;;;16.50;;
1721;SDS011;858;53.190;8.596;2023-05-07T05:05:16;22.13;;;16.90;;
1721;SDS011;858;53.190;8.596;2023-05-07T05:07:45;22.80;;;16.60;;
1721;SDS011;858;53.190;8.596;2023-05-07T05:10:12;19.73;;;15.88;;
1721;SDS011;858;53.190;8.596;2023-05-07T05:12:39;21.60;;;16.60;;
1721;SDS011;858;53.190;8.596;2023-05-07T05:15:06;20.80;;;16.52;;
1721;SDS011;858;53.190;8.596;2023-05-07T05:17:32;21.75;;;16.17;;
1721;SDS011;858;53.190;8.596;2023-05-07T05:19:59;20.02;;;16.08;;
1721;SDS011;858;53.190;8.596;2023-05-07T05:22:26;20.00;;;15.40;;
1721;SDS011;858;53.190;8.596;2023-05-07T05:24:56;20.67;;;15.48;;
1721;SDS011;858;53.190;8.596;2023-05-07T05:27:22;19.25;;;14.98;;
1721;SDS011;858;53.190;8.596;2023-05-07T05:29:49;18.80;;;14.70;;
1721;SDS011;858;53.190;8.596;2023-05-07T05:32:16;19.88;;;15.55;;
1721;SDS011;858;53.190;8.596;2023-05-07T05:34:43;18.02;;;15.10;;
1721;SDS011;858;53.190;8.596;2023-05-07T05:37:10;19.25;;;14.75;;
1721;SDS011;858;53.190;8.596;2023-05-07T05:39:37;18.88;;;15.27;;
1721;SDS011;858;53.190;8.596;2023-05-07T05:42:05;19.80;;;15.40;;
1721;SDS011;858;53.190;8.596;2023-05-07T05:44:31;22.38;;;15.80;;
1721;SDS011;858;53.190;8.596;2023-05-07T05:46:57;18.33;;;15.00;;
1721;SDS011;858;53.190;8.596;2023-05-07T05:49:24;19.88;;;14.35;;
1721;SDS011;858;53.190;8.596;2023-05-07T05:51:51;17.05;;;14.07;;
1721;SDS011;858;53.190;8.596;2023-05-07T05:54:17;20.48;;;15.40;;
1721;SDS011;858;53.190;8.596;2023-05-07T05:56:43;19.52;;;15.50;;
1721;SDS011;858;53.190;8.596;2023-05-07T05:59:11;18.08;;;14.40;;
1721;SDS011;858;53.190;8.596;2023-05-07T06:01:38;21.45;;;15.57;;
1721;SDS011;858;53.190;8.596;2023-05-07T06:04:04;20.60;;;16.15;;
1721;SDS011;858;53.190;8.596;2023-05-07T06:06:30;19.47;;;15.23;;
1721;SDS011;858;53.190;8.596;2023-05-07T06:08:57;19.55;;;14.75;;
1721;SDS011;858;53.190;8.596;2023-05-07T06:11:23;16.15;;;13.93;;
1721;SDS011;858;53.190;8.596;2023-05-07T06:13:50;16.03;;;13.57;;
1721;SDS011;858;53.190;8.596;2023-05-07T06:16:18;16.20;;;13.73;;
1721;SDS011;858;53.190;8.596;2023-05-07T06:18:45;17.45;;;13.48;;
1721;SDS011;858;53.190;8.596;2023-05-07T06:21:13;14.15;;;12.38;;
1721;SDS011;858;53.190;8.596;2023-05-07T06:23:39;15.10;;;12.40;;
1721;SDS011;858;53.190;8.596;2023-05-07T06:26:06;14.55;;;12.20;;
1721;SDS011;858;53.190;8.596;2023-05-07T06:28:32;13.80;;;11.73;;
1721;SDS011;858;53.190;8.596;2023-05-07T06:31:10;13.27;;;11.30;;
1721;SDS011;858;53.190;8.596;2023-05-07T06:33:38;12.10;;;10.80;;
1721;SDS011;858;53.190;8.596;2023-05-07T06:36:05;12.68;;;11.38;;
1721;SDS011;858;53.190;8.596;2023-05-07T06:38:31;11.95;;;10.65;;
1721;SDS011;858;53.190;8.596;2023-05-07T06:40:57;12.10;;;10.80;;
1721;SDS011;858;53.190;8.596;2023-05-07T06:43:24;11.48;;;10.25;;
1721;SDS011;858;53.190;8.596;2023-05-07T06:45:50;11.30;;;10.10;;
1721;SDS011;858;53.190;8.596;2023-05-07T06:48:16;12.77;;;11.00;;
1721;SDS011;858;53.190;8.596;2023-05-07T06:50:44;11.00;;;9.90;;
1721;SDS011;858;53.190;8.596;2023-05-07T06:53:10;11.55;;;10.35;;
1721;SDS011;858;53.190;8.596;2023-05-07T06:55:37;13.02;;;10.63;;
1721;SDS011;858;53.190;8.596;2023-05-07T06:58:04;11.60;;;9.98;;
1721;SDS011;858;53.190;8.596;2023-05-07T07:00:31;11.27;;;10.07;;
1721;SDS011;858;53.190;8.596;2023-05-07T07:02:57;10.87;;;9.77;;
1721;SDS011;858;53.190;8.596;2023-05-07T07:05:24;11.40;;;10.18;;
1721;SDS011;858;53.190;8.596;2023-05-07T07:07:52;13.23;;;10.60;;
1721;SDS011;858;53.190;8.596;2023-05-07T07:10:18;11.55;;;10.38;;
1721;SDS011;858;53.190;8.596;2023-05-07T07:12:45;11.57;;;10.48;;
1721;SDS011;858;53.190;8.596;2023-05-07T07:15:11;11.30;;;10.20;;
1721;SDS011;858;53.190;8.596;2023-05-07T07:17:38;11.70;;;10.00;;
1721;SDS011;858;53.190;8.596;2023-05-07T07:20:06;11.45;;;10.02;;
1721;SDS011;858;53.190;8.596;2023-05-07T07:22:32;11.50;;;10.30;;
1721;SDS011;858;53.190;8.596;2023-05-07T07:25:00;12.93;;;10.10;;
1721;SDS011;858;53.190;8.596;2023-05-07T07:27:27;10.63;;;9.52;;
1721;SDS011;858;53.190;8.596;2023-05-07T07:29:53;11.15;;;10.05;;
1721;SDS011;858;53.190;8.596;2023-05-07T07:32:20;12.10;;;9.55;;
1721;SDS011;858;53.190;8.596;2023-05-07T07:34:46;10.70;;;9.60;;
1721;SDS011;858;53.190;8.596;2023-05-07T07:37:12;11.68;;;10.40;;
1721;SDS011;858;53.190;8.596;2023-05-07T07:39:39;10.80;;;9.60;;
1721;SDS011;858;53.190;8.596;2023-05-07T07:42:07;10.80;;;9.70;;
1721;SDS011;858;53.190;8.596;2023-05-07T07:44:33;11.10;;;9.90;;
1721;SDS011;858;53.190;8.596;2023-05-07T07:47:00;11.13;;;9.93;;
1721;SDS011;858;53.190;8.596;2023-05-07T07:49:26;12.02;;;10.80;;
1721;SDS011;858;53.190;8.596;2023-05-07T07:51:52;11.68;;;10.27;;
1721;SDS011;858;53.190;8.596;2023-05-07T07:54:19;11.45;;;10.25;;
1721;SDS011;858;53.190;8.596;2023-05-07T07:56:46;11.77;;;10.57;;
1721;SDS011;858;53.190;8.596;2023-05-07T07:59:13;11.57;;;10.38;;
1721;SDS011;858;53.190;8.596;2023-05-07T08:01:43;12.05;;;10.48;;
1721;SDS011;858;53.190;8.596;2023-05-07T08:04:10;12.55;;;11.25;;
1721;SDS011;858;53.190;8.596;2023-05-07T08:06:36;11.90;;;10.60;;
1721;SDS011;858;53.190;8.596;2023-05-07T08:09:03;18.52;;;12.50;;
1721;SDS011;858;53.190;8.596;2023-05-07T08:11:29;10.90;;;9.80;;
1721;SDS011;858;53.190;8.596;2023-05-07T08:13:55;11.07;;;9.93;;
1721;SDS011;858;53.190;8.596;2023-05-07T08:16:23;12.52;;;10.50;;
1721;SDS011;858;53.190;8.596;2023-05-07T08:18:50;11.25;;;10.07;;
1721;SDS011;858;53.190;8.596;2023-05-07T08:21:18;11.60;;;10.15;;
1721;SDS011;858;53.190;8.596;2023-05-07T08:23:45;11.20;;;10.00;;
1721;SDS011;858;53.190;8.596;2023-05-07T08:26:11;11.43;;;9.98;;
1721;SDS011;858;53.190;8.596;2023-05-07T08:28:38;11.35;;;10.05;;
1721;SDS011;858;53.190;8.596;2023-05-07T08:31:05;10.90;;;9.80;;
1721;SDS011;858;53.190;8.596;2023-05-07T08:33:32;10.05;;;9.05;;
1721;SDS011;858;53.190;8.596;2023-05-07T08:36:00;10.05;;;8.95;;
1721;SDS011;858;53.190;8.596;2023-05-07T08:38:26;10.38;;;9.27;;
1721;SDS011;858;53.190;8.596;2023-05-07T08:40:53;9.98;;;8.95;;
1721;SDS011;858;53.190;8.596;2023-05-07T08:43:19;10.50;;;9.20;;
1721;SDS011;858;53.190;8.596;2023-05-07T08:45:48;9.70;;;8.70;;
1721;SDS011;858;53.190;8.596;2023-05-07T08:48:15;10.02;;;8.73;;
1721;SDS011;858;53.190;8.596;2023-05-07T08:50:43;9.75;;;8.75;;
1721;SDS011;858;53.190;8.596;2023-05-07T08:53:10;9.25;;;8.35;;
1721;SDS011;858;53.190;8.596;2023-05-07T08:55:36;10.02;;;9.02;;
1721;SDS011;858;53.190;8.596;2023-05-07T08:58:03;8.60;;;7.80;;
1721;SDS011;858;53.190;8.596;2023-05-07T09:00:29;10.20;;;9.20;;
1721;SDS011;858;53.190;8.596;2023-05-07T09:02:56;9.02;;;8.13;;
1721;SDS011;858;53.190;8.596;2023-05-07T09:05:22;9.97;;;8.93;;
1721;SDS011;858;53.190;8.596;2023-05-07T09:07:51;10.20;;;9.20;;
1721;SDS011;858;53.190;8.596;2023-05-07T09:10:17;10.30;;;9.30;;
1721;SDS011;858;53.190;8.596;2023-05-07T09:12:44;8.88;;;7.97;;
1721;SDS011;858;53.190;8.596;2023-05-07T09:15:12;9.38;;;8.48;;
1721;SDS011;858;53.190;8.596;2023-05-07T09:17:39;9.60;;;8.70;;
1721;SDS011;858;53.190;8.596;2023-05-07T09:20:07;10.35;;;9.10;;
1721;SDS011;858;53.190;8.596;2023-05-07T09:22:35;10.30;;;9.20;;
1721;SDS011;858;53.190;8.596;2023-05-07T09:25:04;11.30;;;9.50;;
1721;SDS011;858;53.190;8.596;2023-05-07T09:27:30;10.23;;;9.05;;
1721;SDS011;858;53.190;8.596;2023-05-07T09:29:57;10.70;;;8.57;;
1721;SDS011;858;53.190;8.596;2023-05-07T09:32:24;9.73;;;8.73;;
1721;SDS011;858;53.190;8.596;2023-05-07T09:34:52;9.73;;;8.73;;
1721;SDS011;858;53.190;8.596;2023-05-07T09:37:18;10.48;;;9.23;;
1721;SDS011;858;53.190;8.596;2023-05-07T09:39:45;9.30;;;8.00;;
1721;SDS011;858;53.190;8.596;2023-05-07T09:42:13;10.43;;;9.35;;
1721;SDS011;858;53.190;8.596;2023-05-07T09:44:40;10.43;;;9.35;;
1721;SDS011;858;53.190;8.596;2023-05-07T09:47:07;12.05;;;9.60;;
1721;SDS011;858;53.190;8.596;2023-05-07T09:49:34;10.30;;;9.15;;
1721;SDS011;858;53.190;8.596;2023-05-07T09:52:01;10.15;;;9.15;;
1721;SDS011;858;53.190;8.596;2023-05-07T09:54:27;11.45;;;9.55;;
1721;SDS011;858;53.190;8.596;2023-05-07T09:56:54;10.70;;;9.60;;
1721;SDS011;858;53.190;8.596;2023-05-07T09:59:22;10.55;;;9.55;;
1721;SDS011;858;53.190;8.596;2023-05-07T10:01:49;10.88;;;9.70;;
1721;SDS011;858;53.190;8.596;2023-05-07T10:04:17;11.02;;;9.93;;
1721;SDS011;858;53.190;8.596;2023-05-07T10:06:44;11.70;;;10.50;;
1721;SDS011;858;53.190;8.596;2023-05-07T10:09:12;11.00;;;9.90;;
1721;SDS011;858;53.190;8.596;2023-05-07T10:11:38;10.98;;;9.88;;
1721;SDS011;858;53.190;8.596;2023-05-07T10:14:05;12.10;;;9.75;;
1721;SDS011;858;53.190;8.596;2023-05-07T10:16:34;10.90;;;9.80;;
1721;SDS011;858;53.190;8.596;2023-05-07T10:19:02;13.20;;;10.38;;
1721;SDS011;858;53.190;8.596;2023-05-07T10:21:28;11.80;;;10.60;;
1721;SDS011;858;53.190;8.596;2023-05-07T10:23:58;11.38;;;10.18;;
1721;SDS011;858;53.190;8.596;2023-05-07T10:26:24;11.32;;;10.13;;
1721;SDS011;858;53.190;8.596;2023-05-07T10:28:54;11.85;;;10.55;;
1721;SDS011;858;53.190;8.596;2023-05-07T10:31:37;11.98;;;10.73;;
1721;SDS011;858;53.190;8.596;2023-05-07T10:34:07;12.10;;;10.90;;
1721;SDS011;858;53.190;8.596;2023-05-07T10:36:36;11.03;;;9.87;;
1721;SDS011;858;53.190;8.596;2023-05-07T10:39:04;11.90;;;10.70;;
1721;SDS011;858;53.190;8.596;2023-05-07T10:41:31;11.73;;;10.50;;
1721;SDS011;858;53.190;8.596;2023-05-07T10:43:58;11.95;;;10.50;;
1721;SDS011;858;53.190;8.596;2023-05-07T10:46:27;11.60;;;10.40;;
1721;SDS011;858;53.190;8.596;2023-05-07T10:51:35;12.85;;;10.65;;
1721;SDS011;858;53.190;8.596;2023-05-07T10:56:46;12.27;;;10.85;;
1721;SDS011;858;53.190;8.596;2023-05-07T10:59:34;11.40;;;10.20;;
1721;SDS011;858;53.190;8.596;2023-05-07T11:02:06;11.63;;;10.18;;
1721;SDS011;858;53.190;8.596;2023-05-07T11:04:34;12.00;;;10.80;;
1721;SDS011;858;53.190;8.596;2023-05-07T11:09:57;12.10;;;10.80;;
1721;SDS011;858;53.190;8.596;2023-05-07T11:15:11;11.85;;;10.65;;
1721;SDS011;858;53.190;8.596;2023-05-07T11:17:51;11.50;;;10.40;;
1721;SDS011;858;53.190;8.596;2023-05-07T11:20:18;12.32;;;11.00;;
1721;SDS011;858;53.190;8.596;2023-05-07T11:22:45;12.73;;;10.10;;
1721;SDS011;858;53.190;8.596;2023-05-07T11:25:18;12.55;;;11.25;;
1721;SDS011;858;53.190;8.596;2023-05-07T11:27:44;12.00;;;10.63;;
1721;SDS011;858;53.190;8.596;2023-05-07T11:30:16;12.45;;;10.40;;
1721;SDS011;858;53.190;8.596;2023-05-07T11:32:46;12.57;;;11.10;;
1721;SDS011;858;53.190;8.596;2023-05-07T11:35:13;11.88;;;10.77;;
1721;SDS011;858;53.190;8.596;2023-05-07T11:37:41;14.85;;;10.70;;
1721;SDS011;858;53.190;8.596;2023-05-07T11:40:08;12.60;;;11.30;;
1721;SDS011;858;53.190;8.596;2023-05-07T11:42:37;12.20;;;10.52;;
1721;SDS011;858;53.190;8.596;2023-05-07T11:45:04;10.88;;;9.75;;
1721;SDS011;858;53.190;8.596;2023-05-07T11:47:31;12.98;;;11.00;;
1721;SDS011;858;53.190;8.596;2023-05-07T11:50:02;12.45;;;10.90;;
1721;SDS011;858;53.190;8.596;2023-05-07T11:52:28;12.85;;;10.70;;
1721;SDS011;858;53.190;8.596;2023-05-07T11:54:55;12.27;;;11.07;;
1721;SDS011;858;53.190;8.596;2023-05-07T11:57:22;10.55;;;9.45;;
1721;SDS011;858;53.190;8.596;2023-05-07T11:59:53;12.30;;;10.25;;
1721;SDS011;858;53.190;8.596;2023-05-07T12:02:20;11.30;;;10.30;;
1721;SDS011;858;53.190;8.596;2023-05-07T12:04:46;11.52;;;9.13;;
1721;SDS011;858;53.190;8.596;2023-05-07T12:07:12;12.50;;;11.23;;
1721;SDS011;858;53.190;8.596;2023-05-07T12:09:39;12.20;;;10.90;;
1721;SDS011;858;53.190;8.596;2023-05-07T12:12:06;13.60;;;10.68;;
1721;SDS011;858;53.190;8.596;2023-05-07T12:14:33;12.50;;;11.30;;
1721;SDS011;858;53.190;8.596;2023-05-07T12:17:05;11.90;;;10.70;;
1721;SDS011;858;53.190;8.596;2023-05-07T12:19:31;11.50;;;10.30;;
1721;SDS011;858;53.190;8.596;2023-05-07T12:21:59;11.38;;;9.98;;
1721;SDS011;858;53.190;8.596;2023-05-07T12:24:27;11.88;;;10.60;;
1721;SDS011;858;53.190;8.596;2023-05-07T12:26:54;11.57;;;10.00;;
1721;SDS011;858;53.190;8.596;2023-05-07T12:29:21;10.85;;;9.85;;
1721;SDS011;858;53.190;8.596;2023-05-07T12:31:48;11.60;;;10.40;;
1721;SDS011;858;53.190;8.596;2023-05-07T12:34:16;11.20;;;9.90;;
1721;SDS011;858;53.190;8.596;2023-05-07T12:36:43;11.52;;;10.32;;
1721;SDS011;858;53.190;8.596;2023-05-07T12:39:10;10.20;;;9.20;;
1721;SDS011;858;53.190;8.596;2023-05-07T12:41:51;10.50;;;9.40;;
1721;SDS011;858;53.190;8.596;2023-05-07T12:44:18;11.15;;;10.05;;
1721;SDS011;858;53.190;8.596;2023-05-07T12:46:46;10.77;;;9.68;;
1721;SDS011;858;53.190;8.596;2023-05-07T12:49:12;11.38;;;10.20;;
1721;SDS011;858;53.190;8.596;2023-05-07T12:51:40;10.93;;;9.82;;
1721;SDS011;858;53.190;8.596;2023-05-07T12:54:06;16.15;;;13.80;;
1721;SDS011;858;53.190;8.596;2023-05-07T12:56:35;10.57;;;9.50;;
1721;SDS011;858;53.190;8.596;2023-05-07T12:59:02;10.48;;;9.38;;
1721;SDS011;858;53.190;8.596;2023-05-07T13:01:29;11.18;;;8.93;;
1721;SDS011;858;53.190;8.596;2023-05-07T13:03:58;10.40;;;8.90;;
1721;SDS011;858;53.190;8.596;2023-05-07T13:06:26;10.95;;;9.85;;
1721;SDS011;858;53.190;8.596;2023-05-07T13:08:54;10.02;;;9.02;;
1721;SDS011;858;53.190;8.596;2023-05-07T13:11:20;10.65;;;9.55;;
1721;SDS011;858;53.190;8.596;2023-05-07T13:13:46;11.38;;;10.27;;
1721;SDS011;858;53.190;8.596;2023-05-07T13:16:13;10.60;;;9.60;;
1721;SDS011;858;53.190;8.596;2023-05-07T13:18:39;10.90;;;9.90;;
1721;SDS011;858;53.190;8.596;2023-05-07T13:21:08;11.88;;;9.90;;
1721;SDS011;858;53.190;8.596;2023-05-07T13:23:35;12.73;;;9.77;;
1721;SDS011;858;53.190;8.596;2023-05-07T13:26:04;10.45;;;9.35;;
1721;SDS011;858;53.190;8.596;2023-05-07T13:28:31;11.27;;;9.10;;
1721;SDS011;858;53.190;8.596;2023-05-07T13:30:57;10.80;;;9.70;;
1721;SDS011;858;53.190;8.596;2023-05-07T13:33:23;9.73;;;8.82;;
1721;SDS011;858;53.190;8.596;2023-05-07T13:35:50;9.80;;;8.88;;
1721;SDS011;858;53.190;8.596;2023-05-07T13:38:16;9.40;;;8.50;;
1721;SDS011;858;53.190;8.596;2023-05-07T13:40:43;8.82;;;8.02;;
1721;SDS011;858;53.190;8.596;2023-05-07T13:43:10;9.50;;;8.60;;
1721;SDS011;858;53.190;8.596;2023-05-07T13:45:37;9.10;;;8.30;;
1721;SDS011;858;53.190;8.596;2023-05-07T13:48:03;8.97;;;8.07;;
1721;SDS011;858;53.190;8.596;2023-05-07T13:50:30;9.00;;;8.20;;
1721;SDS011;858;53.190;8.596;2023-05-07T13:52:56;8.80;;;7.90;;
1721;SDS011;858;53.190;8.596;2023-05-07T13:55:23;8.65;;;7.85;;
1721;SDS011;858;53.190;8.596;2023-05-07T13:57:54;11.85;;;9.25;;
1721;SDS011;858;53.190;8.596;2023-05-07T14:00:23;9.30;;;8.30;;
1721;SDS011;858;53.190;8.596;2023-05-07T14:02:49;8.10;;;7.40;;
1721;SDS011;858;53.190;8.596;2023-05-07T14:05:16;9.10;;;8.30;;
1721;SDS011;858;53.190;8.596;2023-05-07T14:07:42;8.60;;;7.80;;
1721;SDS011;858;53.190;8.596;2023-05-07T14:10:09;8.75;;;7.93;;
1721;SDS011;858;53.190;8.596;2023-05-07T14:12:36;8.60;;;7.80;;
1721;SDS011;858;53.190;8.596;2023-05-07T14:15:02;8.05;;;7.18;;
1721;SDS011;858;53.190;8.596;2023-05-07T14:17:30;8.32;;;7.53;;
1721;SDS011;858;53.190;8.596;2023-05-07T14:19:56;8.45;;;7.55;;
1721;SDS011;858;53.190;8.596;2023-05-07T14:22:24;7.90;;;7.20;;
1721;SDS011;858;53.190;8.596;2023-05-07T14:24:52;7.32;;;6.72;;
1721;SDS011;858;53.190;8.596;2023-05-07T14:27:18;7.77;;;7.07;;
1721;SDS011;858;53.190;8.596;2023-05-07T14:29:45;7.78;;;7.07;;
1721;SDS011;858;53.190;8.596;2023-05-07T14:32:15;7.05;;;6.45;;
1721;SDS011;858;53.190;8.596;2023-05-07T14:34:43;7.40;;;6.70;;
1721;SDS011;858;53.190;8.596;2023-05-07T14:37:10;8.30;;;7.40;;
1721;SDS011;858;53.190;8.596;2023-05-07T14:39:36;7.30;;;6.60;;
1721;SDS011;858;53.190;8.596;2023-05-07T14:42:02;8.45;;;7.55;;
1721;SDS011;858;53.190;8.596;2023-05-07T14:44:29;7.88;;;7.18;;
1721;SDS011;858;53.190;8.596;2023-05-07T14:46:56;7.82;;;7.13;;
1721;SDS011;858;53.190;8.596;2023-05-07T14:49:22;7.68;;;6.97;;
1721;SDS011;858;53.190;8.596;2023-05-07T14:51:50;8.50;;;7.60;;
1721;SDS011;858;53.190;8.596;2023-05-07T14:54:16;7.50;;;6.90;;
1721;SDS011;858;53.190;8.596;2023-05-07T14:56:43;9.57;;;7.60;;
1721;SDS011;858;53.190;8.596;2023-05-07T14:59:09;8.48;;;7.57;;
1721;SDS011;858;53.190;8.596;2023-05-07T15:01:36;8.15;;;7.43;;
1721;SDS011;858;53.190;8.596;2023-05-07T15:04:07;8.80;;;7.80;;
1721;SDS011;858;53.190;8.596;2023-05-07T15:06:33;9.82;;;8.55;;
1721;SDS011;858;53.190;8.596;2023-05-07T15:09:01;9.20;;;8.37;;
1721;SDS011;858;53.190;8.596;2023-05-07T15:11:28;8.60;;;7.80;;
1721;SDS011;858;53.190;8.596;2023-05-07T15:13:54;8.40;;;7.60;;
1721;SDS011;858;53.190;8.596;2023-05-07T15:16:21;7.95;;;7.15;;
1721;SDS011;858;53.190;8.596;2023-05-07T15:18:48;7.90;;;7.10;;
1721;SDS011;858;53.190;8.596;2023-05-07T15:21:14;8.10;;;7.40;;